Time;durP1;ratioP1;P1;durP2;ratioP2;P2;SDS_P1;SDS_P2;PMS_P1;PMS_P2;Temp;Humidity;BMP_temperature;BMP_pressure;BME280_temperature;BME280_humidity;BME280_pressure;Samples;Min_cycle;Max_cycle;Signal;HPM_P1;HPM_P2
2023/01/17 02:10:11;;;;;;;47.50;13.60;;;;;;;-1.51;100.00;101042.91;103934;1286;612271;-86
2023/01/17 02:12:38;;;;;;;48.00;14.50;;;;;;;-1.37;100.00;101034.85;103890;1285;156689;-87
2023/01/17 02:15:07;;;;;;;50.80;14.00;;;;;;;-1.40;100.00;101031.46;104315;1284;60369;-86
2023/01/17 02:17:48;;;;;;;46.50;14.10;;;;;;;-1.44;100.00;101032.45;104237;1285;73025;-87
2023/01/17 02:21:18;;;;;;;49.10;14.60;;;;;;;-1.46;100.00;101033.73;103020;1289;601210;-85
2023/01/17 02:24:14;;;;;;;44.40;14.20;;;;;;;-1.52;100.00;101031.80;102957;1300;61261;-87
2023/01/17 02:27:14;;;;;;;46.20;13.10;;;;;;;-1.53;100.00;101032.73;102711;1301;61673;-87
2023/01/17 02:30:14;;;;;;;52.30;15.00;;;;;;;-1.54;100.00;101025.79;102914;1290;601028;-86
2023/01/17 02:36:50;;;;;;;43.90;13.20;;;;;;;-1.52;100.00;101031.64;103613;1284;600135;-86
2023/01/17 02:40:00;;;;;;;46.80;13.90;;;;;;;-1.51;100.00;101031.89;102996;1289;599444;-87
2023/01/17 02:42:31;;;;;;;48.50;14.90;;;;;;;-1.50;100.00;101028.70;102213;1302;61215;-87
2023/01/17 02:44:56;;;;;;;50.20;15.50;;;;;;;-1.49;100.00;101027.63;102650;1303;61356;-86
2023/01/17 02:47:25;;;;;;;48.40;14.30;;;;;;;-1.53;100.00;101027.27;102513;1303;60416;-87
2023/01/17 02:49:59;;;;;;;46.70;14.40;;;;;;;-1.58;100.00;101026.95;102550;1303;75123;-87
2023/01/17 02:52:52;;;;;;;54.60;15.60;;;;;;;-1.60;100.00;101027.36;102453;1295;218575;-87
2023/01/17 02:55:55;;;;;;;50.60;14.10;;;;;;;-1.58;100.00;101027.02;102690;1300;62312;-87
2023/01/17 02:58:30;;;;;;;45.70;14.70;;;;;;;-1.61;100.00;101028.36;102582;1295;61734;-87
2023/01/17 03:01:11;;;;;;;55.00;15.80;;;;;;;-1.61;100.00;101024.69;102652;1295;72641;-87
2023/01/17 03:03:56;;;;;;;49.80;15.50;;;;;;;-1.64;100.00;101024.27;102708;1294;74857;-88
2023/01/17 03:06:45;;;;;;;49.90;15.20;;;;;;;-1.66;100.00;101018.48;105910;1294;73793;-88
2023/01/17 03:09:14;;;;;;;56.10;14.50;;;;;;;-1.67;100.00;101014.40;105872;1294;62767;-87
2023/01/17 03:11:40;;;;;;;57.60;15.10;;;;;;;-1.67;100.00;101008.83;105958;1294;60007;-88
2023/01/17 03:14:06;;;;;;;47.10;13.60;;;;;;;-1.66;100.00;101011.89;106025;1294;58082;-88
2023/01/17 03:16:32;;;;;;;40.90;12.60;;;;;;;-1.64;100.00;101009.02;106088;1292;58383;-88
2023/01/17 03:18:58;;;;;;;45.70;13.50;;;;;;;-1.61;100.00;101009.73;106157;1293;58151;-88
2023/01/17 03:21:24;;;;;;;35.20;12.40;;;;;;;-1.60;100.00;101007.23;106887;1285;58201;-88
2023/01/17 03:23:49;;;;;;;38.60;12.50;;;;;;;-1.57;100.00;101006.44;106718;1286;58177;-87
2023/01/17 03:26:15;;;;;;;35.40;11.50;;;;;;;-1.55;100.00;101003.98;106884;1286;58044;-87
2023/01/17 03:28:42;;;;;;;38.40;12.00;;;;;;;-1.54;100.00;101004.02;106506;1285;73413;-88
2023/01/17 03:31:07;;;;;;;35.20;11.50;;;;;;;-1.53;100.00;101005.14;106357;1285;58206;-88
2023/01/17 03:33:33;;;;;;;36.10;11.90;;;;;;;-1.51;100.00;101007.16;106686;1286;58051;-88
2023/01/17 03:35:58;;;;;;;39.70;11.80;;;;;;;-1.47;100.00;101003.77;106741;1286;58208;-86
2023/01/17 03:38:25;;;;;;;38.20;11.30;;;;;;;-1.46;100.00;100999.37;106575;1285;58288;-87
2023/01/17 03:40:51;;;;;;;42.00;12.70;;;;;;;-1.43;100.00;101003.29;106700;1285;58151;-88
2023/01/17 03:43:16;;;;;;;38.90;12.90;;;;;;;-1.41;100.00;100999.86;106872;1284;58096;-88
2023/01/17 03:45:42;;;;;;;37.00;11.50;;;;;;;-1.39;100.00;100998.17;106343;1285;58415;-88
2023/01/17 03:48:07;;;;;;;34.50;11.00;;;;;;;-1.37;100.00;100998.95;106872;1284;58144;-87
2023/01/17 03:50:33;;;;;;;44.70;12.80;;;;;;;-1.32;100.00;100994.55;106831;1285;58166;-88
2023/01/17 03:52:59;;;;;;;44.00;11.90;;;;;;;-1.33;100.00;100992.85;106836;1285;58063;-88
2023/01/17 03:55:24;;;;;;;40.70;12.00;;;;;;;-1.34;100.00;100991.20;106812;1285;58072;-88
2023/01/17 03:57:50;;;;;;;35.40;11.50;;;;;;;-1.35;100.00;100994.98;106861;1286;58215;-88
2023/01/17 04:00:16;;;;;;;38.20;10.90;;;;;;;-1.35;100.00;100993.05;106872;1285;58565;-87
2023/01/17 04:02:41;;;;;;;38.30;12.40;;;;;;;-1.39;100.00;100992.10;106848;1286;58085;-88
2023/01/17 04:05:07;;;;;;;41.00;12.20;;;;;;;-1.42;100.00;100991.20;106803;1285;58037;-88
2023/01/17 04:07:33;;;;;;;43.30;12.70;;;;;;;-1.43;100.00;100989.74;106794;1286;58107;-88
2023/01/17 04:09:58;;;;;;;38.90;12.90;;;;;;;-1.45;100.00;100986.57;106443;1286;58257;-88
2023/01/17 04:12:24;;;;;;;38.90;12.00;;;;;;;-1.47;100.00;100984.86;106843;1286;58149;-87
2023/01/17 04:14:49;;;;;;;43.80;12.10;;;;;;;-1.51;100.00;100985.30;106852;1286;58138;-88
2023/01/17 04:17:17;;;;;;;41.80;13.10;;;;;;;-1.51;100.00;100984.45;106882;1286;58150;-87
2023/01/17 04:19:43;;;;;;;38.40;12.20;;;;;;;-1.55;100.00;100976.96;106628;1286;73202;-88
2023/01/17 04:22:09;;;;;;;37.60;12.60;;;;;;;-1.60;100.00;100973.61;106765;1285;58811;-87
2023/01/17 04:24:35;;;;;;;38.30;11.60;;;;;;;-1.61;100.00;100971.52;106380;1289;58778;-87
2023/01/17 04:27:03;;;;;;;39.70;11.80;;;;;;;-1.64;100.00;100972.48;106253;1291;58166;-88
2023/01/17 04:29:29;;;;;;;38.70;11.70;;;;;;;-1.67;100.00;100970.50;106297;1289;58520;-88
2023/01/17 04:31:54;;;;;;;42.00;12.00;;;;;;;-1.66;100.00;100969.34;106413;1289;58327;-88
2023/01/17 04:34:20;;;;;;;44.00;12.30;;;;;;;-1.68;100.00;100964.86;106384;1288;58221;-88
2023/01/17 04:36:45;;;;;;;38.60;12.60;;;;;;;-1.69;100.00;100962.52;106354;1292;58145;-88
2023/01/17 04:39:11;;;;;;;39.90;12.40;;;;;;;-1.68;100.00;100964.86;106447;1288;58200;-88
2023/01/17 04:41:36;;;;;;;46.80;12.90;;;;;;;-1.68;100.00;100963.61;106405;1289;73732;-88
2023/01/17 04:44:03;;;;;;;38.30;12.40;;;;;;;-1.66;100.00;100965.35;106173;1288;58751;-87
2023/01/17 04:46:28;;;;;;;45.70;13.30;;;;;;;-1.67;100.00;100963.90;106383;1288;58103;-88
2023/01/17 04:48:54;;;;;;;44.20;13.00;;;;;;;-1.65;100.00;100964.85;106204;1288;58262;-87
2023/01/17 04:51:20;;;;;;;44.90;13.10;;;;;;;-1.65;100.00;100966.83;106410;1288;58248;-88
2023/01/17 04:53:45;;;;;;;42.90;13.20;;;;;;;-1.64;100.00;100965.64;106145;1293;58272;-89
2023/01/17 04:56:11;;;;;;;55.00;14.80;;;;;;;-1.63;100.00;100969.16;106219;1289;62520;-87
2023/01/17 04:58:37;;;;;;;44.00;13.90;;;;;;;-1.64;100.00;100969.50;106360;1289;58514;-88
2023/01/17 05:01:04;;;;;;;44.00;13.50;;;;;;;-1.64;100.00;100970.89;106386;1289;58090;-88
2023/01/17 05:03:30;;;;;;;48.40;13.30;;;;;;;-1.63;100.00;100972.94;106124;1292;58370;-88
2023/01/17 05:05:56;;;;;;;43.10;13.20;;;;;;;-1.65;100.00;100969.45;106124;1293;58361;-88
2023/01/17 05:08:22;;;;;;;52.20;14.60;;;;;;;-1.64;100.00;100975.73;106171;1292;58142;-88
2023/01/17 05:10:47;;;;;;;42.20;13.90;;;;;;;-1.64;100.00;100973.59;106160;1292;58260;-87
2023/01/17 05:13:13;;;;;;;47.10;13.70;;;;;;;-1.64;100.00;100971.98;106028;1292;58680;-88
2023/01/17 05:15:39;;;;;;;43.30;12.90;;;;;;;-1.67;100.00;100973.41;106115;1292;73415;-89
2023/01/17 05:18:07;;;;;;;47.20;13.80;;;;;;;-1.66;100.00;100974.11;106118;1293;58328;-87
2023/01/17 05:20:35;;;;;;;46.70;13.70;;;;;;;-1.66;100.00;100974.53;105974;1294;61113;-88
2023/01/17 05:23:00;;;;;;;45.60;13.80;;;;;;;-1.68;100.00;100973.97;106099;1293;73861;-88
2023/01/17 05:25:29;;;;;;;50.00;14.70;;;;;;;-1.70;100.00;100974.73;106332;1289;58281;-88
2023/01/17 05:27:55;;;;;;;54.80;14.50;;;;;;;-1.68;100.00;100972.09;106250;1289;73385;-87
2023/01/17 05:30:21;;;;;;;40.90;12.20;;;;;;;-1.69;100.00;100964.77;106369;1289;58157;-88
2023/01/17 05:32:52;;;;;;;46.00;14.00;;;;;;;-1.68;100.00;100967.17;106232;1289;58239;-87
2023/01/17 05:35:20;;;;;;;43.80;12.80;;;;;;;-1.68;100.00;100961.66;106706;1285;72582;-87
2023/01/17 05:37:47;;;;;;;45.20;13.50;;;;;;;-1.70;100.00;100962.42;106595;1286;74273;-89
2023/01/17 05:40:22;;;;;;;41.20;13.60;;;;;;;-1.71;100.00;100963.38;106273;1286;73591;-88
2023/01/17 05:42:50;;;;;;;42.70;12.30;;;;;;;-1.68;100.00;100968.33;106467;1286;62845;-87
2023/01/17 05:45:17;;;;;;;39.90;11.90;;;;;;;-1.68;100.00;100963.44;106563;1286;59065;-88
2023/01/17 05:47:44;;;;;;;47.10;13.10;;;;;;;-1.66;100.00;100965.19;106720;1286;73792;-88
2023/01/17 05:50:11;;;;;;;43.00;12.90;;;;;;;-1.66;100.00;100963.34;106652;1286;58100;-88
2023/01/17 05:52:36;;;;;;;50.00;13.20;;;;;;;-1.64;100.00;100966.30;106642;1286;71891;-87
2023/01/17 05:55:02;;;;;;;41.30;12.90;;;;;;;-1.63;100.00;100969.41;106617;1286;59352;-87
2023/01/17 05:57:28;;;;;;;47.00;13.50;;;;;;;-1.56;100.00;100967.26;106656;1286;58098;-88
2023/01/17 05:59:53;;;;;;;38.30;12.80;;;;;;;-1.55;100.00;100965.30;106414;1286;58313;-87
2023/01/17 06:02:19;;;;;;;44.50;13.20;;;;;;;-1.51;100.00;100962.48;106775;1286;58088;-87
2023/01/17 06:04:44;;;;;;;39.90;12.80;;;;;;;-1.48;100.00;100951.30;106642;1286;62934;-88
2023/01/17 06:07:09;;;;;;;47.30;12.90;;;;;;;-1.44;100.00;100944.17;106681;1286;58383;-87
2023/01/17 06:09:35;;;;;;;37.70;11.50;;;;;;;-1.35;100.00;100938.63;106638;1286;58283;-88
2023/01/17 06:12:01;;;;;;;46.30;13.40;;;;;;;-1.27;100.00;100934.16;106725;1286;58163;-87
2023/01/17 06:14:26;;;;;;;44.10;14.50;;;;;;;-1.12;100.00;100937.60;106639;1289;58179;-87
2023/01/17 06:16:52;;;;;;;44.60;13.60;;;;;;;-0.97;100.00;100938.02;106461;1286;61021;-87
2023/01/17 06:19:17;;;;;;;50.60;14.30;;;;;;;-0.81;100.00;100935.25;106395;1286;58317;-86
2023/01/17 06:21:43;;;;;;;51.20;15.90;;;;;;;-0.64;100.00;100935.75;106628;1286;58140;-87
2023/01/17 06:24:09;;;;;;;47.30;14.20;;;;;;;-0.47;100.00;100929.09;106703;1286;58081;-87
2023/01/17 06:26:34;;;;;;;50.20;14.80;;;;;;;-0.29;100.00;100927.10;106694;1286;58221;-86
2023/01/17 06:29:00;;;;;;;50.00;15.30;;;;;;;-0.17;100.00;100936.12;106627;1286;72771;-87
2023/01/17 06:31:26;;;;;;;51.20;15.90;;;;;;;-0.03;100.00;100940.27;106722;1286;58123;-87
2023/01/17 06:33:52;;;;;;;49.80;15.80;;;;;;;0.12;100.00;100939.72;106710;1286;58559;-86
2023/01/17 06:36:18;;;;;;;56.80;16.20;;;;;;;0.25;100.00;100933.55;106551;1286;58533;-87
2023/01/17 06:38:43;;;;;;;51.80;15.40;;;;;;;0.36;100.00;100942.70;106630;1286;58572;-87
2023/01/17 06:41:09;;;;;;;54.30;15.70;;;;;;;0.45;100.00;100941.29;106631;1286;58064;-87
2023/01/17 06:43:35;;;;;;;45.60;15.30;;;;;;;0.52;100.00;100941.52;106783;1286;58774;-87
2023/01/17 06:46:02;;;;;;;49.50;14.60;;;;;;;0.56;100.00;100939.41;106380;1289;59693;-87
2023/01/17 06:48:28;;;;;;;56.00;15.50;;;;;;;0.60;100.00;100942.14;106604;1286;60052;-86
2023/01/17 06:50:53;;;;;;;42.50;15.00;;;;;;;0.63;100.00;100937.36;106367;1292;58371;-87
2023/01/17 06:53:19;;;;;;;46.90;15.20;;;;;;;0.71;100.00;100936.59;106374;1289;58789;-87
2023/01/17 06:55:44;;;;;;;49.40;16.70;;;;;;;0.73;100.00;100925.36;106335;1289;58439;-87
2023/01/17 06:58:10;;;;;;;50.40;16.70;;;;;;;0.72;100.00;100918.21;106417;1289;58814;-86
2023/01/17 07:00:36;;;;;;;46.10;15.90;;;;;;;0.73;100.00;100921.81;106395;1290;73713;-86
2023/01/17 07:03:02;;;;;;;54.70;16.10;;;;;;;0.75;100.00;100916.78;106217;1289;58533;-86
2023/01/17 13:05:24;;;;;;;89.30;27.10;;;;;;;3.93;100.00;100718.58;103963;1283;613468;-80
2023/01/17 13:08:29;;;;;;;78.30;27.20;;;;;;;4.27;100.00;100711.44;103894;1279;116495;-81
2023/01/17 13:11:07;;;;;;;80.40;26.10;;;;;;;4.40;100.00;100710.52;103336;1287;60831;-80
2023/01/17 13:13:34;;;;;;;94.40;28.10;;;;;;;4.52;100.00;100709.63;103205;1288;73090;-80
2023/01/17 13:16:11;;;;;;;78.70;24.80;;;;;;;4.57;100.00;100704.28;103304;1288;74898;-79
2023/01/17 13:18:43;;;;;;;79.90;25.00;;;;;;;4.61;100.00;100701.63;103384;1287;73215;-80
2023/01/17 13:21:28;;;;;;;90.50;26.10;;;;;;;4.67;100.00;100701.08;103361;1288;62012;-80
2023/01/17 13:23:57;;;;;;;83.30;27.00;;;;;;;4.71;100.00;100709.30;103219;1288;61265;-80
2023/01/17 13:26:44;;;;;;;87.70;29.10;;;;;;;4.72;100.00;100711.80;103429;1292;74489;-80
2023/01/17 13:29:10;;;;;;;87.60;27.30;;;;;;;4.78;100.00;100714.70;103296;1292;74675;-79
2023/01/17 13:32:16;;;;;;;80.50;26.40;;;;;;;4.85;100.00;100714.73;103191;1289;600305;-80
2023/01/17 13:34:42;;;;;;;75.10;26.10;;;;;;;4.87;100.00;100716.39;103301;1294;61691;-80
2023/01/17 13:37:26;;;;;;;84.00;25.60;;;;;;;4.92;100.00;100721.94;103277;1291;60494;-80
2023/01/17 13:40:14;;;;;;;95.30;32.20;;;;;;;4.95;100.00;100727.42;103264;1292;73722;-80
2023/01/17 13:42:58;;;;;;;86.50;29.30;;;;;;;5.01;100.00;100730.44;103301;1291;74298;-80
2023/01/17 13:45:32;;;;;;;74.90;25.80;;;;;;;5.15;100.00;100738.25;103198;1286;282538;-79
2023/01/17 13:48:27;;;;;;;71.60;24.50;;;;;;;5.21;100.00;100739.55;103558;1286;62813;-80
2023/01/17 13:51:05;;;;;;;75.40;24.70;;;;;;;5.22;100.00;100744.30;103055;1293;60572;-80
2023/01/17 13:53:33;;;;;;;67.80;22.70;;;;;;;5.23;100.00;100745.40;102770;1293;73651;-80
2023/01/17 13:59:49;;;;;;;67.10;21.90;;;;;;;5.38;100.00;100741.30;102619;1299;601044;-81
2023/01/17 14:02:32;;;;;;;68.10;23.40;;;;;;;5.34;100.00;100735.25;102804;1301;60512;-81
2023/01/17 14:05:06;;;;;;;;;;;;;;;5.30;100.00;100736.20;102862;1298;61005;-79
2023/01/17 14:07:35;;;;;;;75.30;23.40;;;;;;;5.28;100.00;100730.89;102629;1297;72927;-79
2023/01/17 14:10:14;;;;;;;72.90;23.70;;;;;;;5.26;100.00;100735.75;102714;1299;73956;-81
2023/01/17 14:16:29;;;;;;;66.10;23.40;;;;;;;5.20;100.00;100741.73;102735;1290;603311;-80
2023/01/17 14:18:54;;;;;;;68.10;23.20;;;;;;;5.19;100.00;100736.72;103169;1292;61185;-81
2023/01/17 14:21:26;;;;;;;69.20;22.90;;;;;;;5.17;100.00;100742.41;103095;1298;60482;-80
2023/01/17 14:23:58;;;;;;;70.40;23.70;;;;;;;5.12;100.00;100742.30;103148;1296;72062;-80
2023/01/17 14:26:26;;;;;;;66.30;22.40;;;;;;;5.10;100.00;100748.23;103073;1291;74965;-81
2023/01/17 14:28:54;;;;;;;77.90;23.60;;;;;;;5.07;100.00;100751.59;102966;1291;265883;-80
2023/01/17 14:31:22;;;;;;;65.80;23.70;;;;;;;5.03;100.00;100744.48;103288;1292;62561;-81
2023/01/17 14:33:47;;;;;;;77.00;26.60;;;;;;;5.01;100.00;100746.69;103296;1289;60316;-80
2023/01/17 14:36:24;;;;;;;72.80;24.70;;;;;;;4.97;100.00;100750.03;103263;1291;60737;-80
2023/01/17 14:38:50;;;;;;;70.10;23.80;;;;;;;4.98;100.00;100749.90;103153;1292;74897;-80
2023/01/17 14:41:23;;;;;;;71.20;23.80;;;;;;;4.98;100.00;100747.40;103131;1293;60321;-80
2023/01/17 14:43:49;;;;;;;70.60;23.10;;;;;;;4.99;100.00;100733.71;103199;1289;60937;-80
2023/01/17 14:46:24;;;;;;;79.50;24.40;;;;;;;4.96;100.00;100730.48;103262;1288;60354;-81
2023/01/17 14:49:05;;;;;;;69.20;23.10;;;;;;;4.92;100.00;100726.79;103079;1290;71856;-80
2023/01/17 14:51:35;;;;;;;67.30;22.40;;;;;;;4.90;100.00;100727.05;103088;1288;74624;-80
2023/01/17 14:54:14;;;;;;;76.40;24.00;;;;;;;4.89;100.00;100725.02;103067;1292;75006;-80
2023/01/17 15:05:40;;;;;;;73.50;22.60;;;;;;;4.91;100.00;100703.80;103085;1289;600736;-80
2023/01/17 15:08:14;;;;;;;66.80;22.70;;;;;;;4.85;100.00;100720.98;103360;1292;62240;-80
2023/01/17 15:11:15;;;;;;;65.80;23.00;;;;;;;4.83;100.00;100716.36;103198;1292;60418;-79
2023/01/17 15:13:46;;;;;;;78.40;25.00;;;;;;;4.81;100.00;100727.03;102843;1295;72106;-80
2023/01/17 15:16:32;;;;;;;73.50;24.40;;;;;;;4.80;100.00;100725.09;102580;1295;74948;-79
2023/01/17 15:18:59;;;;;;;75.30;24.60;;;;;;;4.79;100.00;100720.98;102799;1292;229852;-80
2023/01/17 15:21:30;;;;;;;73.20;24.00;;;;;;;4.74;100.00;100722.74;102610;1298;60510;-80
2023/01/17 15:23:59;;;;;;;68.90;23.90;;;;;;;4.72;100.00;100724.36;102818;1300;60448;-79
2023/01/17 15:26:27;;;;;;;75.20;25.20;;;;;;;4.69;100.00;100713.45;102463;1297;72485;-80
2023/01/17 15:29:19;;;;;;;75.30;25.20;;;;;;;4.64;100.00;100715.61;102648;1298;75177;-79
2023/01/17 15:31:49;;;;;;;70.10;24.80;;;;;;;4.61;100.00;100719.92;102040;1306;72975;-80
2023/01/17 15:37:41;;;;;;;74.90;23.40;;;;;;;4.59;100.00;100715.77;101996;1307;61797;-79
2023/01/17 15:40:24;;;;;;;71.20;24.40;;;;;;;4.58;100.00;100717.62;101949;1306;73824;-80
2023/01/17 15:42:55;;;;;;;78.20;25.20;;;;;;;4.60;100.00;100721.39;102183;1305;73344;-79
2023/01/17 15:45:32;;;;;;;70.40;24.00;;;;;;;4.61;100.00;100724.56;102122;1308;73224;-79
2023/01/17 15:48:37;;;;;;;76.20;25.10;;;;;;;4.63;100.00;100717.86;102114;1306;61795;-79
2023/01/17 15:51:02;;;;;;;74.40;23.70;;;;;;;4.65;100.00;100722.75;102491;1300;60395;-79
2023/01/17 15:53:31;;;;;;;78.80;24.50;;;;;;;4.65;100.00;100719.63;102578;1303;60360;-79
2023/01/17 15:55:57;;;;;;;69.30;23.50;;;;;;;4.65;100.00;100717.72;102637;1300;74879;-80
2023/01/17 15:58:26;;;;;;;75.20;24.10;;;;;;;4.69;100.00;100717.45;102499;1301;60522;-80
2023/01/17 16:00:52;;;;;;;72.40;24.30;;;;;;;4.71;100.00;100718.65;102699;1300;60922;-80
2023/01/17 16:03:30;;;;;;;75.90;24.60;;;;;;;4.72;100.00;100721.52;103038;1294;60422;-80
2023/01/17 16:05:58;;;;;;;63.50;22.40;;;;;;;4.73;100.00;100717.13;102768;1295;73625;-80
2023/01/17 21:26:44;;;;;;;77.80;27.10;;;;;;;4.50;100.00;100732.19;104267;1281;615121;-88
2023/01/17 21:29:52;;;;;;;81.20;23.50;;;;;;;4.74;100.00;100726.70;97191;1282;10273603;-86
2023/01/17 21:32:30;;;;;;;73.00;23.40;;;;;;;4.77;100.00;100725.60;104652;1280;74954;-87
2023/01/17 21:34:55;;;;;;;83.80;26.80;;;;;;;4.82;100.00;100717.59;104700;1277;73986;-87
2023/01/17 21:37:21;;;;;;;74.00;23.90;;;;;;;4.81;100.00;100721.33;104423;1277;61944;-87
2023/01/17 21:43:09;;;;;;;84.70;26.60;;;;;;;4.83;100.00;100730.84;104523;1277;73575;-89
2023/01/17 21:45:40;;;;;;;82.10;24.20;;;;;;;4.86;100.00;100732.64;104592;1277;60366;-89
2023/01/17 21:48:10;;;;;;;68.10;23.50;;;;;;;4.88;100.00;100738.58;104571;1279;74027;-86
2023/01/17 21:50:37;;;;;;;74.10;24.80;;;;;;;4.90;100.00;100739.71;104400;1277;61475;-88
2023/01/17 21:53:03;;;;;;;81.50;24.70;;;;;;;4.93;100.00;100738.03;104483;1280;60321;-87
2023/01/17 22:01:16;;;;;;;82.20;25.50;;;;;;;4.98;100.00;100742.10;104655;1277;72329;-87
2023/01/17 22:03:48;;;;;;;77.30;23.50;;;;;;;5.01;100.00;100742.57;104720;1279;61693;-88
2023/01/17 22:06:14;;;;;;;68.80;23.90;;;;;;;5.02;100.00;100739.40;104367;1276;60592;-88
2023/01/17 22:08:40;;;;;;;69.10;23.00;;;;;;;5.04;100.00;100740.58;104566;1276;61974;-88
2023/01/17 22:11:11;;;;;;;66.50;22.90;;;;;;;5.05;100.00;100737.82;104537;1277;60415;-88
2023/01/17 22:13:38;;;;;;;68.20;22.10;;;;;;;5.05;100.00;100735.09;104456;1277;71507;-89
2023/01/17 22:16:24;;;;;;;64.60;22.60;;;;;;;5.09;100.00;100732.89;103415;1288;600136;-89
2023/01/17 22:18:50;;;;;;;66.50;22.70;;;;;;;5.10;100.00;100731.19;103729;1285;62579;-88
2023/01/17 22:21:21;;;;;;;63.90;22.00;;;;;;;5.13;100.00;100731.81;103597;1290;60288;-89
2023/01/17 22:23:51;;;;;;;70.60;22.80;;;;;;;5.13;100.00;100739.53;103578;1285;73674;-89
2023/01/17 22:26:17;;;;;;;63.70;22.80;;;;;;;5.15;100.00;100737.88;103625;1285;75088;-89
2023/01/17 22:28:44;;;;;;;74.60;23.60;;;;;;;5.18;100.00;100742.93;103658;1286;74089;-89
2023/01/17 22:31:24;;;;;;;69.10;22.90;;;;;;;5.21;100.00;100746.98;103622;1285;178752;-89
2023/01/17 22:33:56;;;;;;;67.40;22.40;;;;;;;5.23;100.00;100742.77;104015;1283;61501;-89
2023/01/17 22:36:22;;;;;;;61.40;20.60;;;;;;;5.24;100.00;100737.05;103569;1287;72107;-89
2023/01/17 22:38:48;;;;;;;66.70;21.80;;;;;;;5.28;100.00;100737.09;103758;1284;74901;-90
2023/01/17 22:41:18;;;;;;;62.50;20.80;;;;;;;5.29;100.00;100734.66;107079;1283;58128;-91
2023/01/17 22:43:46;;;;;;;66.40;21.70;;;;;;;5.32;100.00;100740.63;106811;1284;60942;-90
2023/01/17 22:46:17;;;;;;;65.50;21.20;;;;;;;5.36;100.00;100747.20;106896;1283;61013;-90
2023/01/17 22:48:43;;;;;;;66.60;21.00;;;;;;;5.40;100.00;100751.89;106807;1283;72964;-90
2023/01/17 22:51:14;;;;;;;72.40;21.40;;;;;;;5.44;100.00;100753.20;106877;1283;58044;-91
2023/01/17 22:53:41;;;;;;;55.60;19.10;;;;;;;5.49;100.00;100753.20;107008;1283;73602;-90
2023/01/17 22:56:11;;;;;;;54.20;19.60;;;;;;;5.52;100.00;100752.70;106994;1283;60907;-90
2023/01/17 22:58:41;;;;;;;60.50;19.10;;;;;;;5.52;100.00;100748.38;107029;1283;60401;-90
2023/01/17 23:01:12;;;;;;;64.90;21.40;;;;;;;5.55;100.00;100747.40;107065;1283;72816;-87
2023/01/17 23:03:43;;;;;;;69.50;21.20;;;;;;;5.58;100.00;100748.11;106881;1283;74320;-88
2023/01/17 23:06:10;;;;;;;63.80;21.80;;;;;;;5.59;100.00;100744.04;106969;1283;72610;-88
2023/01/17 23:08:36;;;;;;;55.00;20.40;;;;;;;5.61;100.00;100734.10;106993;1283;61857;-87
2023/01/17 23:13:47;;;;;;;66.80;20.90;;;;;;;5.63;100.00;100729.79;106902;1283;71391;-87
2023/01/17 23:24:24;;;;;;;60.20;20.10;;;;;;;5.65;100.00;100718.92;107023;1283;60024;-88
2023/01/17 23:29:34;;;;;;;66.50;21.60;;;;;;;5.63;100.00;100708.34;106913;1283;73374;-87
2023/01/17 23:31:59;;;;;;;57.40;19.60;;;;;;;5.60;100.00;100715.85;106563;1286;58243;-88
2023/01/17 23:34:25;;;;;;;64.60;21.80;;;;;;;5.62;100.00;100715.21;106458;1286;58227;-88
2023/01/17 23:36:50;;;;;;;65.70;21.50;;;;;;;5.62;100.00;100716.00;106422;1288;58282;-89
2023/01/17 23:39:16;;;;;;;55.90;20.50;;;;;;;5.60;100.00;100717.66;106311;1288;58268;-88
2023/01/17 23:44:30;;;;;;;60.90;19.30;;;;;;;5.60;100.00;100711.75;106381;1288;59935;-88
2023/01/17 23:46:59;;;;;;;63.40;21.10;;;;;;;5.64;100.00;100709.81;106441;1288;61203;-89
2023/01/17 23:49:30;;;;;;;59.80;21.20;;;;;;;5.63;100.00;100710.84;106403;1288;72784;-89
2023/01/17 23:51:56;;;;;;;57.10;20.00;;;;;;;5.67;100.00;100714.23;106259;1291;74061;-89
2023/01/17 23:54:22;;;;;;;58.50;20.60;;;;;;;5.69;100.00;100709.63;106226;1291;58814;-89
2023/01/17 23:56:47;;;;;;;53.30;20.00;;;;;;;5.74;100.00;100713.51;106060;1291;58652;-89
2023/01/17 23:59:13;;;;;;;62.50;20.80;;;;;;;5.77;100.00;100719.69;106146;1291;58209;-90
